Terminal Aerodrome Forecast
Issued by NWS Green Bay, WI

Home | Current Version | Previous Version | Text Only | Print | Product List | Glossary On
Versions: 1 2 3 4 5 6 7 8 9 10 11 12 13 14 15 16 17 18 19 20 21 22 23 24 25 26 27 28 29 30 31 32 33 34 35 36 37 38 39 40
000
FTUS43 KGRB 020500
TAFGRB
TAF
KGRB 020537Z 0206/0306 14005KT 6SM -SHRA BR SCT035 BKN070
     FM020900 13003KT 6SM BR SCT025 OVC050
      TEMPO 0209/0213 3SM -RA BR BKN025
     FM021400 14003KT 3SM BR SCT014 OVC025
     FM021800 13005KT 5SM BR SCT015 BKN030
     FM022300 12005KT 3SM -RA BR SCT012 OVC025
      TEMPO 0301/0305 1SM +RA BKN012=

USA.gov is the U.S. government's official web portal to all federal, state and local government web resources and services.